Time;durP1;ratioP1;P1;durP2;ratioP2;P2;SDS_P1;SDS_P2;PMS_P1;PMS_P2;Temp;Humidity;BMP_temperature;BMP_pressure;BME280_temperature;BME280_humidity;BME280_pressure;Samples;Min_cycle;Max_cycle;Signal;HPM_P1;HPM_P2
2021/07/18 00:00:34;;;;;;;7.00;5.55;;;;;;;16.65;100.00;102411.53;5224594;28;20427;-69
2021/07/18 00:03:05;;;;;;;6.85;5.30;;;;;;;16.63;100.00;102408.19;5221119;28;20266;-69
2021/07/18 00:05:36;;;;;;;8.98;5.57;;;;;;;16.56;100.00;102401.75;5223784;28;20034;-69
2021/07/18 00:08:08;;;;;;;10.38;5.45;;;;;;;16.52;100.00;102408.25;5223819;28;20061;-69
2021/07/18 00:10:39;;;;;;;9.63;6.13;;;;;;;16.52;100.00;102410.91;5225148;28;20117;-69
2021/07/18 00:13:10;;;;;;;9.88;5.57;;;;;;;16.49;100.00;102409.34;5221371;28;20039;-69
2021/07/18 00:15:41;;;;;;;9.10;5.63;;;;;;;16.51;100.00;102411.84;5224767;28;20581;-69
2021/07/18 00:18:13;;;;;;;7.10;5.50;;;;;;;16.49;100.00;102413.81;5225195;28;20143;-69
2021/07/18 00:20:46;;;;;;;6.10;4.95;;;;;;;16.45;100.00;102401.81;5223104;28;20330;-69
2021/07/18 00:23:18;;;;;;;8.73;6.00;;;;;;;16.38;100.00;102411.22;5225472;28;20026;-69
2021/07/18 00:25:49;;;;;;;8.25;5.50;;;;;;;16.40;100.00;102398.69;5223646;28;20030;-69
2021/07/18 00:28:21;;;;;;;7.53;5.45;;;;;;;16.41;100.00;102393.28;5219192;28;20392;-69
2021/07/18 00:30:52;;;;;;;6.80;5.32;;;;;;;16.40;100.00;102396.91;5223701;28;20059;-69
2021/07/18 00:33:23;;;;;;;7.55;5.00;;;;;;;16.42;100.00;102394.13;5224840;28;20021;-70
2021/07/18 00:35:54;;;;;;;8.40;5.00;;;;;;;16.36;100.00;102390.19;5224531;28;20044;-70
2021/07/18 00:38:26;;;;;;;7.10;5.45;;;;;;;16.34;100.00;102405.38;5222070;28;20506;-70
2021/07/18 00:40:57;;;;;;;9.95;5.55;;;;;;;16.23;100.00;102405.44;5225264;28;20033;-70
2021/07/18 00:43:29;;;;;;;8.30;5.50;;;;;;;16.26;100.00;102397.25;5225660;28;20029;-70
2021/07/18 00:46:01;;;;;;;7.80;4.93;;;;;;;16.12;100.00;102400.19;5224542;28;20061;-70
2021/07/18 00:48:34;;;;;;;8.27;5.60;;;;;;;16.14;100.00;102401.75;5225519;28;20479;-70
2021/07/18 00:51:05;;;;;;;;;;;;;;;16.49;100.00;102400.59;5224792;28;20132;-70
2021/07/18 00:53:36;;;;;;;10.38;5.35;;;;;;;16.17;100.00;102392.72;5224876;28;20393;-70
2021/07/18 00:56:08;;;;;;;10.00;5.85;;;;;;;16.11;100.00;102388.78;5223216;28;20069;-70
2021/07/18 00:58:41;;;;;;;7.03;5.37;;;;;;;16.11;100.00;102395.88;5224984;28;20033;-70
2021/07/18 01:01:12;;;;;;;9.10;6.07;;;;;;;16.04;100.00;102395.56;5225605;28;20037;-70
2021/07/18 01:03:44;;;;;;;9.45;6.25;;;;;;;15.99;100.00;102397.75;5222667;28;20030;-70
2021/07/18 01:06:15;;;;;;;7.35;6.15;;;;;;;16.00;100.00;102394.13;5224278;28;20660;-70
2021/07/18 01:08:46;;;;;;;9.68;6.03;;;;;;;16.00;100.00;102391.50;5226259;28;20030;-70
2021/07/18 01:11:18;;;;;;;8.27;6.25;;;;;;;15.96;100.00;102393.53;5222890;28;20391;-70
2021/07/18 01:13:50;;;;;;;9.93;7.18;;;;;;;15.89;100.00;102391.53;5222352;28;20450;-70
2021/07/18 01:16:21;;;;;;;8.73;6.32;;;;;;;15.93;100.00;102396.44;5225084;28;20028;-70
2021/07/18 01:18:52;;;;;;;7.32;6.18;;;;;;;15.91;100.00;102392.22;5224931;28;20029;-70
2021/07/18 01:21:25;;;;;;;14.10;6.90;;;;;;;15.86;100.00;102389.97;5224959;28;20030;-70
2021/07/18 01:23:59;;;;;;;7.57;6.60;;;;;;;15.90;100.00;102393.22;5220888;28;20117;-70
2021/07/18 01:26:30;;;;;;;9.70;6.47;;;;;;;15.81;100.00;102385.06;5222939;28;20385;-70
2021/07/18 01:29:02;;;;;;;10.65;6.72;;;;;;;15.87;100.00;102385.53;5225142;28;20657;-70
2021/07/18 01:31:33;;;;;;;14.23;7.35;;;;;;;15.87;100.00;102382.88;5225083;28;20033;-70
2021/07/18 01:34:04;;;;;;;9.88;7.18;;;;;;;15.82;100.00;102378.00;5223253;28;20026;-70
2021/07/18 01:36:36;;;;;;;11.55;7.47;;;;;;;15.79;100.00;102368.50;5223330;28;20032;-70
2021/07/18 01:39:09;;;;;;;8.13;6.85;;;;;;;15.75;100.00;102377.66;5219361;28;20061;-70
2021/07/18 01:41:41;;;;;;;9.65;7.03;;;;;;;15.73;100.00;102379.59;5221533;28;20036;-70
2021/07/18 01:44:12;;;;;;;11.57;7.68;;;;;;;15.67;100.00;102379.25;5216459;28;20041;-70
2021/07/18 01:46:44;;;;;;;9.90;7.43;;;;;;;15.72;100.00;102375.28;5221429;28;20018;-70
2021/07/18 01:49:15;;;;;;;11.60;7.75;;;;;;;15.70;100.00;102368.44;5220890;28;20188;-70
2021/07/18 01:51:46;;;;;;;11.05;7.38;;;;;;;15.74;100.00;102369.84;5215903;28;20112;-70
2021/07/18 01:54:18;;;;;;;9.93;7.55;;;;;;;15.73;100.00;102369.03;5222567;28;20048;-70
2021/07/18 01:56:49;;;;;;;10.77;7.55;;;;;;;15.71;100.00;102368.28;5237627;28;20617;-70
2021/07/18 01:59:20;;;;;;;11.77;7.00;;;;;;;15.66;100.00;102369.66;5221711;28;20459;-70
2021/07/18 02:01:51;;;;;;;9.27;7.72;;;;;;;15.63;100.00;102365.41;5220140;28;20321;-70
2021/07/18 02:04:23;;;;;;;9.52;7.68;;;;;;;15.58;100.00;102368.44;5222234;28;20130;-70
2021/07/18 02:06:54;;;;;;;10.85;7.90;;;;;;;15.58;100.00;102357.03;5221569;28;20034;-70
2021/07/18 02:09:25;;;;;;;11.80;8.02;;;;;;;15.61;100.00;102370.00;5222785;28;20064;-70
2021/07/18 02:11:57;;;;;;;9.90;7.70;;;;;;;15.58;100.00;102364.97;5221372;28;20033;-70
2021/07/18 02:14:28;;;;;;;10.85;7.80;;;;;;;15.59;100.00;102353.44;5222559;28;20028;-70
2021/07/18 02:16:59;;;;;;;10.98;7.57;;;;;;;15.53;100.00;102356.56;5224284;28;20140;-70
2021/07/18 02:19:31;;;;;;;9.23;7.82;;;;;;;15.47;100.00;102346.53;5221520;28;20029;-70
2021/07/18 02:22:03;;;;;;;10.52;7.78;;;;;;;15.46;100.00;102358.88;5222631;28;20032;-70
2021/07/18 02:24:34;;;;;;;9.40;7.72;;;;;;;15.47;100.00;102357.91;5222576;28;20030;-70
2021/07/18 02:27:07;;;;;;;8.43;6.95;;;;;;;15.39;100.00;102351.59;5223872;28;20052;-70
2021/07/18 02:29:38;;;;;;;;;;;;;;;15.72;100.00;102350.63;5223779;28;20080;-70
2021/07/18 02:32:09;;;;;;;9.97;7.67;;;;;;;15.39;100.00;102343.66;5221198;28;19913;-70
2021/07/18 02:34:41;;;;;;;9.32;7.65;;;;;;;15.37;100.00;102345.56;5220025;28;20026;-70
2021/07/18 02:37:12;;;;;;;10.98;8.50;;;;;;;15.36;100.00;102350.03;5220405;28;20045;-70
2021/07/18 02:39:43;;;;;;;9.40;7.10;;;;;;;15.33;100.00;102351.09;5222718;28;20028;-70
2021/07/18 02:42:14;;;;;;;10.88;7.82;;;;;;;15.29;100.00;102348.84;5223450;28;20060;-70
2021/07/18 02:44:46;;;;;;;11.40;7.35;;;;;;;15.31;100.00;102352.22;5219527;28;20025;-70
2021/07/18 02:47:17;;;;;;;11.90;8.27;;;;;;;15.32;100.00;102351.25;5223395;28;20030;-70
2021/07/18 02:49:51;;;;;;;10.90;8.05;;;;;;;15.26;100.00;102349.09;5218884;28;20283;-70
2021/07/18 02:52:23;;;;;;;10.25;8.02;;;;;;;15.17;100.00;102350.66;5219533;28;20029;-70
2021/07/18 02:54:55;;;;;;;10.07;8.02;;;;;;;15.20;100.00;102355.72;5220276;28;20531;-70
2021/07/18 02:57:26;;;;;;;8.73;7.82;;;;;;;15.12;100.00;102350.22;5222999;28;20022;-70
2021/07/18 02:59:58;;;;;;;12.40;8.60;;;;;;;15.12;100.00;102347.56;5222559;28;20036;-70
2021/07/18 03:02:29;;;;;;;11.57;7.97;;;;;;;15.13;100.00;102351.88;5223681;28;20415;-70
2021/07/18 03:05:01;;;;;;;10.17;8.13;;;;;;;15.11;100.00;102351.16;5219918;28;20394;-70
2021/07/18 03:07:33;;;;;;;11.90;8.10;;;;;;;15.07;100.00;102344.44;5219618;28;20787;-70
2021/07/18 03:10:05;;;;;;;12.98;9.45;;;;;;;15.08;100.00;102352.25;5221709;28;20068;-70
2021/07/18 03:12:37;;;;;;;11.20;8.55;;;;;;;15.08;100.00;102348.78;5215860;28;20032;-70
2021/07/18 03:15:11;;;;;;;13.25;9.38;;;;;;;15.01;100.00;102348.44;5222367;28;20034;-70
2021/07/18 03:17:42;;;;;;;14.40;9.90;;;;;;;15.01;100.00;102345.78;5221863;28;20021;-70
2021/07/18 03:20:16;;;;;;;12.30;9.48;;;;;;;15.02;100.00;102346.63;5221902;28;20026;-70
2021/07/18 03:22:49;;;;;;;13.73;9.90;;;;;;;15.03;100.00;102346.50;5219718;28;20088;-70
2021/07/18 03:25:20;;;;;;;15.55;8.88;;;;;;;15.03;100.00;102350.94;5223660;28;20026;-70
2021/07/18 03:27:52;;;;;;;11.75;9.35;;;;;;;15.04;100.00;102353.47;5219295;28;20050;-70
2021/07/18 03:30:23;;;;;;;11.07;9.32;;;;;;;15.00;100.00;102349.41;5223548;28;20030;-70
2021/07/18 03:32:54;;;;;;;10.70;9.32;;;;;;;14.99;100.00;102349.50;5220617;28;20037;-70
2021/07/18 03:35:26;;;;;;;14.65;9.93;;;;;;;14.98;100.00;102353.09;5218994;28;20030;-70
2021/07/18 03:37:57;;;;;;;12.80;9.32;;;;;;;14.94;100.00;102344.59;5220829;28;20565;-70
2021/07/18 03:40:28;;;;;;;14.82;9.73;;;;;;;14.95;100.00;102346.25;5220873;28;20235;-70
2021/07/18 03:43:00;;;;;;;12.38;9.55;;;;;;;14.90;100.00;102342.31;5220800;28;20033;-70
2021/07/18 03:45:31;;;;;;;12.00;9.65;;;;;;;14.94;100.00;102354.31;5221728;28;20041;-70
2021/07/18 03:48:03;;;;;;;12.80;10.10;;;;;;;14.94;100.00;102351.69;5220090;28;20037;-70
2021/07/18 03:50:34;;;;;;;11.05;9.70;;;;;;;14.94;100.00;102354.31;5219990;28;20033;-70
2021/07/18 03:53:05;;;;;;;11.38;8.95;;;;;;;14.90;100.00;102345.81;5219694;28;20380;-70
2021/07/18 03:55:37;;;;;;;11.20;9.75;;;;;;;14.93;100.00;102352.66;5221592;28;20273;-70
2021/07/18 03:58:08;;;;;;;14.90;10.48;;;;;;;14.94;100.00;102357.78;5220092;28;20075;-70
2021/07/18 04:00:39;;;;;;;13.63;10.40;;;;;;;14.92;100.00;102351.78;5216291;28;20041;-70
2021/07/18 04:03:11;;;;;;;12.82;10.02;;;;;;;14.92;100.00;102364.97;5219472;28;20049;-70
2021/07/18 04:05:42;;;;;;;11.10;9.57;;;;;;;14.93;100.00;102356.13;5217439;28;20495;-70
2021/07/18 04:08:13;;;;;;;14.35;9.75;;;;;;;14.95;100.00;102362.09;5220706;28;20034;-70
2021/07/18 04:10:45;;;;;;;15.00;9.75;;;;;;;14.93;100.00;102356.13;5217932;28;20013;-70
2021/07/18 04:13:16;;;;;;;13.18;9.65;;;;;;;14.92;100.00;102361.50;5221573;28;20041;-70
2021/07/18 04:15:47;;;;;;;14.68;10.43;;;;;;;14.92;100.00;102353.59;5221129;28;20403;-70
2021/07/18 04:18:18;;;;;;;14.32;11.30;;;;;;;14.94;100.00;102359.59;5220744;28;20053;-70
2021/07/18 04:20:50;;;;;;;15.70;11.65;;;;;;;15.00;100.00;102357.31;5217911;28;20034;-70
2021/07/18 04:23:21;;;;;;;15.70;10.75;;;;;;;15.03;100.00;102364.97;5219815;28;20053;-70
2021/07/18 04:25:52;;;;;;;14.82;10.90;;;;;;;15.04;100.00;102361.38;5219571;28;20045;-70
2021/07/18 04:28:24;;;;;;;16.65;12.02;;;;;;;15.03;100.00;102364.97;5221623;28;20502;-70
2021/07/18 04:30:55;;;;;;;13.90;11.77;;;;;;;14.93;100.00;102345.56;5217575;28;20038;-69
2021/07/18 04:33:26;;;;;;;19.90;11.98;;;;;;;15.13;100.00;102358.97;5220402;28;20025;-70
2021/07/18 04:35:57;;;;;;;15.65;12.43;;;;;;;15.15;100.00;102360.50;5224589;28;20435;-69
2021/07/18 04:38:29;;;;;;;16.70;13.15;;;;;;;15.15;100.00;102357.03;5221881;28;20702;-70
2021/07/18 04:41:00;;;;;;;18.75;13.73;;;;;;;15.17;100.00;102355.94;5224631;28;20034;-70
2021/07/18 04:43:31;;;;;;;17.15;12.90;;;;;;;15.16;100.00;102346.38;5222703;28;20036;-69
2021/07/18 04:46:04;;;;;;;19.90;14.02;;;;;;;15.25;100.00;102358.81;5224723;28;20409;-70
2021/07/18 04:48:36;;;;;;;16.20;13.32;;;;;;;15.33;100.00;102364.31;5224659;28;20061;-70
2021/07/18 04:51:07;;;;;;;17.67;13.95;;;;;;;15.32;100.00;102367.91;5222141;28;20057;-70
2021/07/18 04:53:38;;;;;;;18.88;14.20;;;;;;;15.40;100.00;102363.81;5225098;28;20026;-70
2021/07/18 04:56:09;;;;;;;18.63;13.50;;;;;;;15.46;100.00;102361.53;5223791;28;20503;-70
2021/07/18 04:58:41;;;;;;;16.45;13.98;;;;;;;15.48;100.00;102371.97;5225387;28;20518;-70
2021/07/18 05:01:12;;;;;;;19.30;14.65;;;;;;;15.54;100.00;102374.09;5220816;28;20091;-70
2021/07/18 05:03:44;;;;;;;19.38;14.50;;;;;;;15.54;100.00;102360.91;5224321;28;20044;-69
2021/07/18 05:06:15;;;;;;;18.83;14.27;;;;;;;15.58;100.00;102365.81;5224883;28;20030;-69
2021/07/18 05:08:46;;;;;;;17.70;15.07;;;;;;;15.62;100.00;102369.03;5225011;28;20025;-70
2021/07/18 05:11:21;;;;;;;17.30;14.35;;;;;;;15.64;100.00;102367.09;5215319;28;20022;-69
2021/07/18 05:13:52;;;;;;;18.80;14.65;;;;;;;15.64;100.00;102363.63;5219145;28;20036;-69
2021/07/18 05:16:25;;;;;;;20.48;15.70;;;;;;;15.70;100.00;102363.16;5223611;28;20466;-70
2021/07/18 05:18:57;;;;;;;21.75;16.40;;;;;;;15.74;100.00;102360.13;5221178;28;20038;-69
2021/07/18 05:21:28;;;;;;;19.50;16.40;;;;;;;15.79;100.00;102363.22;5222080;28;20033;-69
2021/07/18 05:23:59;;;;;;;20.25;15.05;;;;;;;15.84;100.00;102364.66;5221133;28;20527;-69
2021/07/18 05:26:30;;;;;;;21.30;16.95;;;;;;;15.84;100.00;102360.22;5219552;28;20068;-69
2021/07/18 05:29:02;;;;;;;22.27;16.92;;;;;;;15.92;100.00;102370.97;5222202;28;20381;-69
2021/07/18 05:31:33;;;;;;;19.67;15.88;;;;;;;15.97;100.00;102376.72;5219175;28;20030;-69
2021/07/18 05:34:04;;;;;;;20.48;16.33;;;;;;;16.03;100.00;102370.94;5222629;28;20025;-69
2021/07/18 05:36:36;;;;;;;19.05;16.08;;;;;;;16.07;100.00;102365.38;5222514;28;20144;-70
2021/07/18 05:39:07;;;;;;;19.38;16.85;;;;;;;16.13;100.00;102368.31;5224379;28;20030;-69
2021/07/18 05:41:38;;;;;;;20.73;16.70;;;;;;;16.18;100.00;102371.44;5216180;28;20065;-69
2021/07/18 05:44:10;;;;;;;20.67;17.40;;;;;;;16.25;100.00;102375.25;5218522;28;20052;-70
2021/07/18 05:46:41;;;;;;;19.05;15.77;;;;;;;16.32;100.00;102364.97;5222742;28;20950;-69
2021/07/18 05:49:12;;;;;;;20.83;16.45;;;;;;;16.41;100.00;102373.94;5218350;28;20601;-70
2021/07/18 05:51:46;;;;;;;18.85;16.40;;;;;;;16.52;100.00;102371.22;5219966;28;20454;-70
2021/07/18 05:54:17;;;;;;;22.58;16.90;;;;;;;16.55;100.00;102378.88;5221470;28;20426;-69
2021/07/18 05:56:49;;;;;;;19.67;16.10;;;;;;;16.58;100.00;102375.97;5222006;28;20887;-69
2021/07/18 05:59:20;;;;;;;21.58;16.08;;;;;;;16.67;100.00;102377.84;5222971;28;20022;-69
2021/07/18 06:01:51;;;;;;;18.00;15.68;;;;;;;16.73;100.00;102369.38;5221464;28;20029;-70
2021/07/18 06:04:24;;;;;;;16.65;14.90;;;;;;;16.84;100.00;102375.56;5222321;28;20390;-69
2021/07/18 06:06:55;;;;;;;17.13;14.40;;;;;;;16.89;100.00;102374.16;5217395;28;20128;-69
2021/07/18 06:09:26;;;;;;;16.57;14.43;;;;;;;16.97;100.00;102377.00;5218379;28;20025;-69
2021/07/18 06:11:58;;;;;;;16.25;13.60;;;;;;;17.02;100.00;102372.13;5220109;28;20284;-69
2021/07/18 06:14:29;;;;;;;16.90;13.90;;;;;;;17.14;100.00;102370.22;5218256;28;20027;-70
2021/07/18 06:17:00;;;;;;;14.20;12.25;;;;;;;17.18;100.00;102368.97;5213925;28;20030;-70
2021/07/18 06:19:31;;;;;;;16.75;13.70;;;;;;;17.27;100.00;102365.53;5224143;28;20528;-70
2021/07/18 06:22:03;;;;;;;12.88;11.55;;;;;;;17.36;100.00;102370.97;5221587;28;20060;-70
2021/07/18 06:24:35;;;;;;;14.93;13.32;;;;;;;17.42;100.00;102368.56;5220068;28;20018;-70
2021/07/18 06:27:07;;;;;;;17.52;13.00;;;;;;;17.46;100.00;102362.06;5222877;28;20167;-69
2021/07/18 06:29:38;;;;;;;17.13;13.00;;;;;;;17.60;100.00;102354.66;5221588;28;20040;-70
2021/07/18 06:32:09;;;;;;;13.65;11.65;;;;;;;17.66;100.00;102364.72;5222490;28;20471;-70
2021/07/18 06:34:41;;;;;;;14.40;12.27;;;;;;;17.73;100.00;102374.63;5220559;28;20104;-70
2021/07/18 06:37:12;;;;;;;13.82;12.30;;;;;;;17.87;100.00;102369.88;5216887;28;20717;-70
2021/07/18 06:39:43;;;;;;;16.17;12.40;;;;;;;17.99;100.00;102361.66;5218234;28;20017;-70
2021/07/18 06:42:16;;;;;;;13.98;11.75;;;;;;;18.06;100.00;102371.69;5215344;28;20040;-70
2021/07/18 06:44:47;;;;;;;14.25;10.55;;;;;;;18.21;100.00;102372.91;5216935;28;20447;-70
2021/07/18 06:47:19;;;;;;;12.93;10.40;;;;;;;18.25;100.00;102366.34;5222048;28;20555;-70
2021/07/18 06:49:50;;;;;;;14.27;9.68;;;;;;;18.34;100.00;102367.31;5220413;28;20113;-70
2021/07/18 06:52:21;;;;;;;15.10;9.80;;;;;;;18.43;100.00;102371.75;5220513;28;20164;-70
2021/07/18 06:54:53;;;;;;;10.00;8.43;;;;;;;18.50;100.00;102377.31;5220687;28;20041;-69
2021/07/18 06:57:24;;;;;;;10.40;8.03;;;;;;;18.63;100.00;102380.47;5219829;28;20395;-70
2021/07/18 06:59:56;;;;;;;10.13;7.22;;;;;;;18.66;100.00;102382.84;5221389;28;20034;-70
2021/07/18 07:02:27;;;;;;;10.32;7.03;;;;;;;18.80;100.00;102382.41;5219683;28;20030;-70
2021/07/18 07:04:58;;;;;;;10.37;6.83;;;;;;;18.87;100.00;102375.53;5220663;28;20106;-70
2021/07/18 07:07:29;;;;;;;7.87;6.60;;;;;;;19.00;100.00;102384.97;5219491;28;20617;-68
2021/07/18 07:10:01;;;;;;;8.93;6.00;;;;;;;19.09;100.00;102379.59;5219514;28;20026;-69
2021/07/18 07:12:32;;;;;;;8.03;5.40;;;;;;;19.26;100.00;102379.78;5219523;28;20030;-69
2021/07/18 07:15:04;;;;;;;7.77;5.00;;;;;;;19.29;100.00;102377.66;5212152;28;20396;-69
2021/07/18 07:17:36;;;;;;;6.80;5.00;;;;;;;19.42;100.00;102371.97;5218026;28;20025;-69
2021/07/18 07:20:08;;;;;;;9.60;5.27;;;;;;;19.56;100.00;102373.28;5219059;28;20288;-69
2021/07/18 07:22:40;;;;;;;6.10;4.78;;;;;;;19.68;100.00;102375.56;5219895;28;20037;-69
2021/07/18 07:25:14;;;;;;;9.07;5.33;;;;;;;19.77;100.00;102365.81;5220039;28;20665;-69
2021/07/18 07:27:46;;;;;;;8.40;4.55;;;;;;;19.87;100.00;102371.06;5219103;28;20041;-69
2021/07/18 07:30:18;;;;;;;6.47;4.87;;;;;;;19.97;100.00;102376.31;5218908;28;20503;-69
2021/07/18 07:32:50;;;;;;;6.55;3.83;;;;;;;20.09;100.00;102372.41;5217430;28;20029;-69
2021/07/18 07:35:22;;;;;;;5.77;3.43;;;;;;;20.21;100.00;102379.13;5217409;28;20530;-69
2021/07/18 07:37:53;;;;;;;5.22;3.17;;;;;;;20.31;100.00;102376.38;5216101;28;20069;-69
2021/07/18 07:40:25;;;;;;;5.40;3.60;;;;;;;20.45;100.00;102373.13;5213652;28;20396;-68
2021/07/18 07:42:56;;;;;;;6.57;3.03;;;;;;;20.52;99.85;102371.53;5212154;28;20030;-69
2021/07/18 07:45:27;;;;;;;5.00;2.73;;;;;;;20.64;100.00;102377.41;5221646;28;20060;-71
2021/07/18 07:47:59;;;;;;;3.83;2.37;;;;;;;20.77;97.34;102369.84;5219997;28;20117;-70
2021/07/18 07:50:30;;;;;;;5.83;2.70;;;;;;;20.87;94.48;102375.00;5220153;28;20029;-70
2021/07/18 07:53:02;;;;;;;7.80;3.17;;;;;;;20.99;94.36;102384.41;5219455;28;20040;-70
2021/07/18 07:55:34;;;;;;;6.32;2.97;;;;;;;21.08;95.50;102378.09;5219466;28;20368;-70
2021/07/18 07:58:07;;;;;;;7.50;2.70;;;;;;;21.21;93.81;102366.97;5217965;28;20040;-70
2021/07/18 08:00:39;;;;;;;4.97;2.33;;;;;;;21.35;94.65;102370.88;5216040;28;20037;-69
2021/07/18 08:03:10;;;;;;;5.23;2.90;;;;;;;21.42;94.01;102366.53;5216744;28;20038;-69
2021/07/18 08:05:42;;;;;;;6.90;2.30;;;;;;;21.53;93.31;102368.06;5219996;28;20041;-70
2021/07/18 08:08:13;;;;;;;3.40;2.20;;;;;;;21.66;92.51;102365.72;5224663;28;20125;-70
2021/07/18 08:10:44;;;;;;;3.13;2.30;;;;;;;21.60;91.38;102358.41;5220648;28;20508;-69
2021/07/18 08:13:16;;;;;;;4.40;2.23;;;;;;;21.71;91.42;102362.59;5221968;28;20033;-70
2021/07/18 08:15:47;;;;;;;4.63;2.50;;;;;;;21.81;91.01;102355.22;5222924;28;20033;-70
2021/07/18 08:18:18;;;;;;;3.40;2.33;;;;;;;21.86;90.65;102360.91;5221519;28;20026;-69
2021/07/18 08:20:50;;;;;;;4.50;2.37;;;;;;;21.96;89.97;102352.72;5220980;28;21213;-69
2021/07/18 08:23:21;;;;;;;3.93;2.17;;;;;;;22.15;89.64;102356.88;5225775;28;20036;-69
2021/07/18 08:25:52;;;;;;;5.13;2.50;;;;;;;22.25;90.44;102349.53;5222922;28;20045;-70
2021/07/18 08:28:24;;;;;;;3.50;2.03;;;;;;;22.39;89.54;102356.00;5225798;28;20087;-70
2021/07/18 08:30:55;;;;;;;2.97;1.87;;;;;;;22.52;89.00;102353.63;5224551;28;20714;-70
2021/07/18 08:33:26;;;;;;;5.70;1.90;;;;;;;22.54;87.26;102352.47;5223138;28;20034;-70
2021/07/18 08:35:58;;;;;;;4.33;2.10;;;;;;;22.70;87.28;102353.41;5224645;28;20030;-70
2021/07/18 08:38:29;;;;;;;4.57;2.13;;;;;;;22.74;86.73;102354.72;5221961;28;20049;-70
2021/07/18 08:41:01;;;;;;;4.73;2.10;;;;;;;22.94;85.81;102353.31;5222080;28;20352;-70
2021/07/18 08:43:32;;;;;;;3.80;1.83;;;;;;;23.01;85.42;102353.44;5221694;28;20026;-69
2021/07/18 08:46:05;;;;;;;5.47;1.57;;;;;;;23.14;85.40;102350.19;5223648;28;20177;-70
2021/07/18 08:48:36;;;;;;;3.95;1.77;;;;;;;23.13;83.78;102357.38;5240060;28;20033;-70
2021/07/18 08:51:07;;;;;;;2.40;1.60;;;;;;;23.23;83.91;102346.47;5220549;28;20076;-70
2021/07/18 08:53:39;;;;;;;3.57;1.90;;;;;;;23.23;83.41;102341.13;5225484;28;20426;-69
2021/07/18 08:56:11;;;;;;;3.50;1.90;;;;;;;23.50;85.09;102339.75;5221189;28;20483;-69
2021/07/18 08:58:42;;;;;;;7.20;1.83;;;;;;;23.54;80.63;102346.41;5222419;28;20031;-69
2021/07/18 09:01:14;;;;;;;3.70;1.90;;;;;;;23.62;81.85;102343.66;5224307;28;20041;-69
2021/07/18 09:03:46;;;;;;;3.37;1.77;;;;;;;23.85;80.42;102340.97;5222285;28;20242;-69
2021/07/18 09:06:18;;;;;;;;;;;;;;;24.08;82.90;102342.75;5225306;28;20053;-69
2021/07/18 09:08:50;;;;;;;3.60;1.90;;;;;;;23.99;80.46;102344.69;5221704;28;20015;-69
2021/07/18 09:11:25;;;;;;;3.88;2.05;;;;;;;24.23;81.05;102339.06;5223448;28;20030;-70
2021/07/18 09:14:02;;;;;;;3.60;1.75;;;;;;;24.29;79.79;102345.56;5225030;28;20072;-69
2021/07/18 09:16:36;;;;;;;4.15;1.80;;;;;;;24.25;76.55;102344.28;5220441;28;20365;-69
2021/07/18 09:19:25;;;;;;;4.72;2.00;;;;;;;24.44;79.41;102338.38;5224449;28;20402;-70
2021/07/18 09:21:57;;;;;;;4.78;2.08;;;;;;;24.55;78.00;102342.44;5221892;28;20036;-69
2021/07/18 09:24:31;;;;;;;5.70;1.63;;;;;;;24.66;78.77;102349.16;5219162;28;20487;-72
2021/07/18 09:27:23;;;;;;;4.45;1.75;;;;;;;24.76;75.90;102347.84;5224101;28;20037;-70
2021/07/18 09:29:56;;;;;;;3.58;2.25;;;;;;;24.96;75.77;102334.69;5224667;28;20037;-69
2021/07/18 09:32:29;;;;;;;5.38;2.17;;;;;;;24.87;74.47;102348.41;5223562;28;20033;-70
2021/07/18 09:35:04;;;;;;;3.50;1.90;;;;;;;24.93;75.47;102339.59;5224436;28;20132;-70
2021/07/18 09:37:45;;;;;;;4.32;2.80;;;;;;;25.18;76.53;102338.25;5221848;28;20042;-70
2021/07/18 09:40:24;;;;;;;5.63;2.13;;;;;;;25.23;74.71;102343.06;5223375;28;20037;-70
2021/07/18 09:42:59;;;;;;;4.35;2.00;;;;;;;25.24;75.51;102336.66;5222033;28;20479;-70
2021/07/18 09:45:31;;;;;;;4.03;2.40;;;;;;;25.31;74.94;102329.53;5221308;28;20052;-70
2021/07/18 09:48:08;;;;;;;4.38;2.60;;;;;;;25.46;73.68;102334.81;5222837;28;20068;-70
2021/07/18 09:50:44;;;;;;;3.63;2.20;;;;;;;25.55;73.14;102332.81;5223118;28;20033;-70
2021/07/18 09:53:22;;;;;;;4.57;2.58;;;;;;;25.73;75.56;102327.81;5218210;28;20471;-70
2021/07/18 09:56:16;;;;;;;4.15;2.35;;;;;;;25.84;75.36;102327.31;5223180;28;20161;-70
2021/07/18 09:58:55;;;;;;;3.22;2.10;;;;;;;25.81;73.25;102326.88;5221167;28;20092;-70
2021/07/18 10:01:26;;;;;;;4.45;2.38;;;;;;;25.80;71.00;102319.81;5223325;28;20502;-69
2021/07/18 10:03:58;;;;;;;4.97;2.70;;;;;;;25.88;73.67;102315.16;5222727;28;20072;-70
2021/07/18 10:06:30;;;;;;;6.27;2.27;;;;;;;26.00;73.49;102318.13;5224454;28;20113;-70
2021/07/18 10:09:09;;;;;;;5.00;2.00;;;;;;;26.12;73.66;102313.84;5220541;28;20030;-70
2021/07/18 10:11:41;;;;;;;5.90;2.47;;;;;;;26.17;71.79;102308.69;5219291;28;20026;-70
2021/07/18 10:14:12;;;;;;;3.53;2.47;;;;;;;26.15;72.95;102301.88;5220391;28;20038;-70
2021/07/18 10:16:44;;;;;;;4.83;2.60;;;;;;;26.38;70.65;102307.78;5222165;28;20368;-69
2021/07/18 10:19:16;;;;;;;6.20;2.67;;;;;;;26.48;71.59;102312.00;5226054;28;20041;-70
2021/07/18 10:21:48;;;;;;;3.87;2.10;;;;;;;26.43;71.25;102304.50;5224194;28;20026;-70
2021/07/18 10:24:21;;;;;;;4.18;2.28;;;;;;;26.51;69.64;102306.22;5222094;28;20056;-70
2021/07/18 10:26:52;;;;;;;3.72;2.60;;;;;;;26.56;70.53;102303.78;5222139;28;20033;-70
2021/07/18 10:29:25;;;;;;;5.13;2.53;;;;;;;26.62;71.29;102298.41;5221653;28;20029;-70
2021/07/18 10:32:00;;;;;;;4.22;2.10;;;;;;;26.65;68.32;102299.88;5224406;28;20494;-70
2021/07/18 10:34:35;;;;;;;3.97;2.50;;;;;;;26.72;69.49;102300.72;5220886;28;20398;-70
2021/07/18 10:37:10;;;;;;;4.20;2.00;;;;;;;26.86;69.95;102299.75;5223415;28;20171;-70
2021/07/18 10:39:43;;;;;;;4.85;2.72;;;;;;;26.87;67.28;102300.56;5224179;28;20021;-70
2021/07/18 10:42:31;;;;;;;5.30;2.65;;;;;;;27.05;68.35;102300.81;5223077;28;20033;-69
2021/07/18 10:45:19;;;;;;;5.78;2.47;;;;;;;26.97;68.54;102295.59;5219671;28;20036;-70
2021/07/18 10:48:06;;;;;;;5.88;2.50;;;;;;;27.16;68.09;102294.84;5222236;28;20026;-70
2021/07/18 10:50:44;;;;;;;5.05;2.75;;;;;;;27.13;69.20;102297.97;5222362;28;20096;-70
2021/07/18 10:53:30;;;;;;;4.90;2.70;;;;;;;27.45;69.79;102289.28;5218935;28;20029;-70
2021/07/18 10:56:04;;;;;;;4.05;2.20;;;;;;;27.46;68.97;102293.63;5220051;28;20049;-70
2021/07/18 10:58:38;;;;;;;3.90;2.35;;;;;;;27.44;71.19;102298.38;5213365;28;20014;-70
2021/07/18 11:01:09;;;;;;;4.72;2.42;;;;;;;27.52;66.79;102292.78;5220144;28;20062;-70
2021/07/18 11:03:43;;;;;;;3.93;2.47;;;;;;;27.67;68.83;102289.88;5222745;28;20100;-70
2021/07/18 11:06:25;;;;;;;3.40;2.20;;;;;;;27.73;70.01;102289.88;5223365;28;20537;-70
2021/07/18 11:09:11;;;;;;;3.65;2.47;;;;;;;27.64;68.83;102294.63;5219239;28;20034;-70
2021/07/18 11:11:45;;;;;;;3.55;2.40;;;;;;;27.80;66.09;102290.72;5222123;28;20033;-70
2021/07/18 11:14:31;;;;;;;4.30;2.50;;;;;;;27.67;66.45;102293.41;5221804;28;20026;-70
2021/07/18 11:17:06;;;;;;;4.40;2.30;;;;;;;27.93;65.21;102279.09;5218364;28;20036;-70
2021/07/18 11:19:37;;;;;;;5.95;2.40;;;;;;;27.87;66.17;102271.84;5222172;28;20482;-70
2021/07/18 11:22:13;;;;;;;4.47;2.57;;;;;;;27.98;67.67;102275.75;5221497;28;20041;-70
2021/07/18 11:24:47;;;;;;;3.47;2.00;;;;;;;27.78;67.37;102273.94;5221719;28;20029;-70
2021/07/18 11:27:30;;;;;;;3.55;2.30;;;;;;;28.11;67.86;102270.34;5236835;28;20068;-70
2021/07/18 11:30:05;;;;;;;5.95;2.58;;;;;;;28.01;66.41;102269.97;5221313;28;20119;-70
2021/07/18 11:32:40;;;;;;;3.55;2.33;;;;;;;28.07;66.35;102253.78;5218304;28;20372;-70
2021/07/18 11:35:18;;;;;;;5.28;2.22;;;;;;;28.10;64.46;102269.50;5222753;28;20521;-70
2021/07/18 11:37:49;;;;;;;6.30;2.38;;;;;;;28.16;65.08;102275.09;5220803;28;20041;-71